Time;durP1;ratioP1;P1;durP2;ratioP2;P2;SDS_P1;SDS_P2;PMS_P1;PMS_P2;Temp;Humidity;BMP_temperature;BMP_pressure;BME280_temperature;BME280_humidity;BME280_pressure;Samples;Min_cycle;Max_cycle;Signal;HPM_P1;HPM_P2
2023/06/05 00:01:13;;;;;;;;;;;10.80;99.90;;;;;;5060954;28;19924;-80
2023/06/05 00:03:39;;;;;;;;;;;10.70;99.90;;;;;;5068583;28;20303;-80
2023/06/05 00:06:04;;;;;;;;;;;10.70;99.90;;;;;;5102427;28;19928;-80
2023/06/05 00:08:30;;;;;;;;;;;10.60;99.90;;;;;;5076569;28;19949;-80
2023/06/05 00:10:56;;;;;;;;;;;10.60;99.90;;;;;;5100349;28;19953;-80
2023/06/05 00:13:21;;;;;;;;;;;10.60;99.90;;;;;;5101534;28;19963;-80
2023/06/05 00:15:47;;;;;;;;;;;10.60;99.90;;;;;;5053600;28;19931;-80
2023/06/05 00:18:14;;;;;;;;;;;10.50;99.90;;;;;;5064428;28;19924;-79
2023/06/05 00:20:39;;;;;;;;;;;10.50;99.90;;;;;;5045407;28;19924;-80
2023/06/05 00:23:06;;;;;;;;;;;10.50;99.90;;;;;;5091580;28;19938;-80
2023/06/05 00:25:31;;;;;;;;;;;10.50;99.90;;;;;;5075287;28;20210;-80
2023/06/05 00:27:57;;;;;;;;;;;10.50;99.90;;;;;;5059190;28;19924;-80
2023/06/05 00:30:22;;;;;;;;;;;10.50;99.90;;;;;;5063162;28;19931;-80
2023/06/05 00:32:48;;;;;;;;;;;10.40;99.90;;;;;;5057552;28;20635;-80
2023/06/05 00:35:13;;;;;;;;;;;10.40;99.90;;;;;;5058013;28;19986;-80
2023/06/05 00:37:39;;;;;;;;;;;10.40;99.90;;;;;;5057613;28;19924;-80
2023/06/05 00:40:05;;;;;;;;;;;10.40;99.90;;;;;;5074301;28;19947;-80
2023/06/05 00:42:31;;;;;;;;;;;10.30;99.90;;;;;;5078888;28;20410;-80
2023/06/05 00:44:56;;;;;;;;;;;10.40;99.90;;;;;;5088993;28;19932;-80
2023/06/05 00:47:22;;;;;;;;;;;10.30;99.90;;;;;;5075094;28;19974;-80
2023/06/05 00:49:48;;;;;;;;;;;10.30;99.90;;;;;;5090014;28;20306;-81
2023/06/05 00:52:14;;;;;;;;;;;10.30;99.90;;;;;;5108110;27;19931;-81
2023/06/05 00:54:40;;;;;;;;;;;10.20;99.90;;;;;;5061138;28;19924;-81
2023/06/05 00:57:07;;;;;;;;;;;10.20;99.90;;;;;;5058938;28;19924;-81
2023/06/05 00:59:34;;;;;;;;;;;10.20;99.90;;;;;;5080407;28;19932;-80
2023/06/05 01:02:02;;;;;;;;;;;10.20;99.90;;;;;;5060344;28;19928;-81
2023/06/05 01:04:28;;;;;;;;;;;10.20;99.90;;;;;;5074959;28;19959;-81
2023/06/05 01:06:57;;;;;;;;;;;10.20;99.90;;;;;;5072534;28;19924;-80
2023/06/05 01:09:23;;;;;;;;;;;10.10;99.90;;;;;;5057642;28;20444;-81
2023/06/05 01:11:49;;;;;;;;;;;10.10;99.90;;;;;;5065203;28;19931;-81
2023/06/05 01:14:22;;;;;;;;;;;10.10;99.90;;;;;;5071580;28;19939;-81
2023/06/05 01:16:53;;;;;;;;;;;10.00;99.90;;;;;;5078301;28;20287;-81
2023/06/05 01:19:20;;;;;;;;;;;10.00;99.90;;;;;;5097563;28;19924;-81
2023/06/05 01:21:46;;;;;;;;;;;9.90;99.90;;;;;;5054713;28;19928;-81
2023/06/05 01:24:13;;;;;;;;;;;9.90;99.90;;;;;;5055853;28;21461;-80
2023/06/05 01:26:52;;;;;;;;;;;9.90;99.90;;;;;;5087976;28;19940;-81
2023/06/05 01:29:21;;;;;;;;;;;9.90;99.90;;;;;;5073044;28;19956;-80
2023/06/05 01:31:47;;;;;;;;;;;9.80;99.90;;;;;;5055003;28;19928;-80
2023/06/05 01:34:14;;;;;;;;;;;9.80;99.90;;;;;;5074693;28;20381;-80
2023/06/05 01:36:40;;;;;;;;;;;9.80;99.90;;;;;;5070519;28;19946;-80
2023/06/05 01:39:07;;;;;;;;;;;9.90;99.90;;;;;;5088924;28;19984;-80
2023/06/05 01:41:32;;;;;;;;;;;9.80;99.90;;;;;;5071883;28;19924;-80
2023/06/05 01:43:58;;;;;;;;;;;9.80;99.90;;;;;;5043153;28;20056;-80
2023/06/05 01:46:24;;;;;;;;;;;9.70;99.90;;;;;;5091714;28;20377;-80
2023/06/05 01:48:51;;;;;;;;;;;9.70;99.90;;;;;;5058250;28;20290;-80
2023/06/05 01:51:16;;;;;;;;;;;9.70;99.90;;;;;;5094080;28;19929;-80
2023/06/05 01:53:42;;;;;;;;;;;9.70;99.90;;;;;;5083731;28;19924;-81
2023/06/05 01:56:08;;;;;;;;;;;9.70;99.90;;;;;;5061724;28;20260;-80
2023/06/05 01:58:35;;;;;;;;;;;9.70;99.90;;;;;;5098040;28;19935;-80
2023/06/05 02:01:00;;;;;;;;;;;9.70;99.90;;;;;;5067303;28;19949;-80
2023/06/05 02:03:26;;;;;;;;;;;9.60;99.90;;;;;;5063749;28;19987;-80
2023/06/05 02:05:52;;;;;;;;;;;9.60;99.90;;;;;;5048754;28;19928;-80
2023/06/05 02:08:19;;;;;;;;;;;9.60;99.90;;;;;;5093528;28;19928;-80
2023/06/05 02:10:52;;;;;;;;;;;9.60;99.90;;;;;;5056272;28;19923;-80
2023/06/05 02:13:22;;;;;;;;;;;9.60;99.90;;;;;;5067098;28;19984;-80
2023/06/05 02:15:54;;;;;;;;;;;9.60;99.90;;;;;;5084967;28;19985;-80
2023/06/05 02:18:20;;;;;;;;;;;9.60;99.90;;;;;;5072863;28;19923;-80
2023/06/05 02:20:52;;;;;;;;;;;9.60;99.90;;;;;;5084350;28;19924;-80
2023/06/05 02:23:18;;;;;;;;;;;9.60;99.90;;;;;;5064564;28;19932;-80
2023/06/05 02:25:43;;;;;;;;;;;9.50;99.90;;;;;;5099359;28;19932;-80
2023/06/05 02:28:09;;;;;;;;;;;9.50;99.90;;;;;;5061581;28;20272;-80
2023/06/05 02:30:34;;;;;;;;;;;9.50;99.90;;;;;;5061644;28;19975;-80
2023/06/05 02:33:01;;;;;;;;;;;9.50;99.90;;;;;;5073441;28;19977;-79
2023/06/05 02:35:26;;;;;;;;;;;9.50;99.90;;;;;;5075569;28;19946;-80
2023/06/05 02:37:52;;;;;;;;;;;9.50;99.90;;;;;;5092859;28;19936;-79
2023/06/05 02:40:18;;;;;;;;;;;9.50;99.90;;;;;;5072212;28;19924;-80
2023/06/05 02:42:44;;;;;;;;;;;9.50;99.90;;;;;;5113257;27;20029;-80
2023/06/05 02:45:09;;;;;;;;;;;9.50;99.90;;;;;;5043045;28;19924;-80
2023/06/05 02:47:35;;;;;;;;;;;9.40;99.90;;;;;;5059948;28;19959;-80
2023/06/05 02:50:01;;;;;;;;;;;9.40;99.90;;;;;;5060493;28;19924;-80
2023/06/05 02:52:27;;;;;;;;;;;9.40;99.90;;;;;;5058307;28;19932;-80
2023/06/05 02:54:53;;;;;;;;;;;9.40;99.90;;;;;;5042559;28;19928;-80
2023/06/05 02:57:19;;;;;;;;;;;9.40;99.90;;;;;;5058231;28;19954;-80
2023/06/05 02:59:45;;;;;;;;;;;9.40;99.90;;;;;;5082820;28;20396;-80
2023/06/05 03:02:11;;;;;;;;;;;9.40;99.90;;;;;;5067079;28;19983;-79
2023/06/05 03:04:39;;;;;;;;;;;9.40;99.90;;;;;;5061994;28;19929;-80
2023/06/05 03:07:08;;;;;;;;;;;9.40;99.90;;;;;;5074519;28;19981;-79
2023/06/05 03:09:33;;;;;;;;;;;9.40;99.90;;;;;;5060695;28;19970;-80
2023/06/05 03:11:59;;;;;;;;;;;9.40;99.90;;;;;;5109564;27;20376;-80
2023/06/05 03:14:26;;;;;;;;;;;9.40;99.90;;;;;;5057959;28;19928;-80
2023/06/05 03:16:53;;;;;;;;;;;9.50;99.90;;;;;;5074568;28;19932;-80
2023/06/05 03:19:19;;;;;;;;;;;9.40;99.90;;;;;;5055384;28;19924;-80
2023/06/05 03:21:44;;;;;;;;;;;9.40;99.90;;;;;;5073832;28;19925;-80
2023/06/05 03:24:12;;;;;;;;;;;9.40;99.90;;;;;;5075090;28;19924;-80
2023/06/05 03:26:38;;;;;;;;;;;9.40;99.90;;;;;;5074143;28;19930;-79
2023/06/05 03:29:05;;;;;;;;;;;9.40;99.90;;;;;;5075460;28;19991;-80
2023/06/05 03:31:30;;;;;;;;;;;9.40;99.90;;;;;;5095386;28;19924;-80
2023/06/05 03:33:58;;;;;;;;;;;9.40;99.90;;;;;;5059190;28;19947;-80
2023/06/05 03:36:23;;;;;;;;;;;9.40;99.90;;;;;;5077456;28;19935;-80
2023/06/05 03:38:49;;;;;;;;;;;9.40;99.90;;;;;;5058837;28;20660;-80
2023/06/05 03:41:15;;;;;;;;;;;9.40;99.90;;;;;;5075055;28;20022;-80
2023/06/05 03:43:40;;;;;;;;;;;9.40;99.90;;;;;;5058586;28;19932;-80
2023/06/05 03:46:07;;;;;;;;;;;9.40;99.90;;;;;;5074061;28;19928;-80
2023/06/05 03:48:32;;;;;;;;;;;9.30;99.90;;;;;;5056494;28;19928;-80
2023/06/05 03:51:00;;;;;;;;;;;9.30;99.90;;;;;;5042091;28;19950;-80
2023/06/05 03:53:29;;;;;;;;;;;9.40;99.90;;;;;;5040373;28;19932;-80
2023/06/05 03:55:54;;;;;;;;;;;9.40;99.90;;;;;;5091676;28;19930;-80
2023/06/05 03:58:20;;;;;;;;;;;9.40;99.90;;;;;;5090161;28;19960;-80
2023/06/05 04:00:48;;;;;;;;;;;9.40;99.90;;;;;;5042262;28;19924;-80
2023/06/05 04:03:14;;;;;;;;;;;9.40;99.90;;;;;;5079643;28;19928;-80
2023/06/05 04:05:40;;;;;;;;;;;9.40;99.90;;;;;;5075281;28;19927;-80
2023/06/05 04:08:06;;;;;;;;;;;9.50;99.90;;;;;;5092147;28;19930;-80
2023/06/05 04:10:32;;;;;;;;;;;9.50;99.90;;;;;;5072136;28;19929;-80
2023/06/05 04:12:58;;;;;;;;;;;9.50;99.90;;;;;;5041496;28;19928;-80
2023/06/05 04:15:23;;;;;;;;;;;9.50;99.90;;;;;;5074093;28;19945;-80
2023/06/05 04:17:49;;;;;;;;;;;9.50;99.90;;;;;;5047958;28;19928;-80
2023/06/05 04:20:15;;;;;;;;;;;9.60;99.90;;;;;;5063967;28;19928;-80
2023/06/05 04:22:44;;;;;;;;;;;9.60;99.90;;;;;;5070285;28;19946;-80
2023/06/05 04:25:10;;;;;;;;;;;9.60;99.90;;;;;;5078857;28;19946;-80
2023/06/05 04:27:37;;;;;;;;;;;9.70;99.90;;;;;;5101492;28;19924;-80
2023/06/05 04:30:05;;;;;;;;;;;9.70;99.90;;;;;;5063771;28;19995;-80
2023/06/05 04:32:34;;;;;;;;;;;9.80;99.90;;;;;;5073691;28;19973;-80
2023/06/05 04:35:00;;;;;;;;;;;9.80;99.90;;;;;;5072263;28;19928;-80
2023/06/05 04:37:26;;;;;;;;;;;9.90;99.90;;;;;;5072354;28;19939;-80
2023/06/05 04:39:51;;;;;;;;;;;9.90;99.90;;;;;;5072391;28;19959;-80
2023/06/05 04:42:17;;;;;;;;;;;10.00;99.90;;;;;;5088087;28;19936;-80
2023/06/05 04:44:43;;;;;;;;;;;10.10;99.90;;;;;;5089408;28;20402;-80
2023/06/05 04:47:09;;;;;;;;;;;10.20;99.90;;;;;;5060594;28;19924;-80
2023/06/05 04:49:35;;;;;;;;;;;10.40;99.90;;;;;;5062675;28;20462;-81
2023/06/05 04:52:00;;;;;;;;;;;10.50;99.90;;;;;;5043028;28;19928;-80
2023/06/05 04:54:26;;;;;;;;;;;10.70;99.90;;;;;;5088525;28;19939;-80
2023/06/05 04:56:52;;;;;;;;;;;10.70;99.90;;;;;;5057451;28;19967;-81
2023/06/05 04:59:18;;;;;;;;;;;10.80;99.90;;;;;;5069656;28;19932;-80
2023/06/05 05:01:44;;;;;;;;;;;11.00;99.90;;;;;;5077197;28;19968;-80
2023/06/05 05:04:11;;;;;;;;;;;11.20;99.90;;;;;;5058633;28;19939;-80
2023/06/05 05:06:37;;;;;;;;;;;11.20;99.90;;;;;;5070906;28;20087;-80
2023/06/05 05:09:03;;;;;;;;;;;11.30;99.90;;;;;;5048485;28;19928;-80
2023/06/05 05:11:29;;;;;;;;;;;11.50;99.90;;;;;;5057570;28;19978;-80
2023/06/05 05:13:54;;;;;;;;;;;11.90;99.90;;;;;;5054326;28;19928;-80
2023/06/05 05:16:20;;;;;;;;;;;12.30;99.90;;;;;;5041266;28;20024;-80
2023/06/05 05:18:46;;;;;;;;;;;12.80;99.90;;;;;;5089479;28;20053;-80
2023/06/05 05:21:12;;;;;;;;;;;13.20;99.90;;;;;;5044791;28;19924;-81
2023/06/05 05:23:37;;;;;;;;;;;13.60;99.90;;;;;;5070918;28;20992;-81
2023/06/05 05:26:03;;;;;;;;;;;14.00;99.90;;;;;;5055512;28;19947;-79
2023/06/05 05:28:29;;;;;;;;;;;14.30;99.90;;;;;;5090450;28;19949;-80
2023/06/05 05:30:58;;;;;;;;;;;14.70;99.90;;;;;;5087488;28;19928;-81
2023/06/05 05:33:24;;;;;;;;;;;14.90;99.90;;;;;;5057982;28;19976;-80
2023/06/05 05:35:50;;;;;;;;;;;15.20;99.90;;;;;;5090896;28;19959;-81
2023/06/05 05:38:16;;;;;;;;;;;15.30;99.90;;;;;;5077158;28;19935;-80
2023/06/05 05:40:41;;;;;;;;;;;15.50;99.90;;;;;;5087072;28;21348;-80
2023/06/05 05:43:07;;;;;;;;;;;15.70;99.90;;;;;;5044406;28;19924;-81
2023/06/05 05:45:32;;;;;;;;;;;15.90;99.90;;;;;;5045028;28;19932;-80
2023/06/05 05:47:58;;;;;;;;;;;16.10;99.90;;;;;;5077526;28;19972;-81
2023/06/05 05:50:23;;;;;;;;;;;16.30;99.90;;;;;;5060131;28;19932;-80
2023/06/05 05:52:51;;;;;;;;;;;16.50;99.90;;;;;;5067761;28;19924;-80
2023/06/05 05:55:17;;;;;;;;;;;16.60;99.90;;;;;;5093004;28;19988;-81
2023/06/05 05:57:42;;;;;;;;;;;16.80;99.90;;;;;;5058692;28;19967;-80
2023/06/05 06:00:12;;;;;;;;;;;16.90;99.90;;;;;;5086182;28;20402;-80
2023/06/05 06:02:41;;;;;;;;;;;17.10;99.90;;;;;;5067316;28;20371;-80
2023/06/05 06:05:07;;;;;;;;;;;17.20;99.90;;;;;;5086964;28;19967;-81
2023/06/05 06:07:35;;;;;;;;;;;17.40;99.90;;;;;;5075107;28;19958;-80
2023/06/05 06:10:01;;;;;;;;;;;17.40;99.90;;;;;;5066700;28;19924;-80
2023/06/05 06:12:27;;;;;;;;;;;17.40;99.90;;;;;;5057994;28;20369;-80
2023/06/05 06:14:56;;;;;;;;;;;17.50;99.90;;;;;;5048498;28;19928;-78
2023/06/05 06:17:22;;;;;;;;;;;17.50;99.90;;;;;;5052696;28;20303;-80
2023/06/05 06:19:48;;;;;;;;;;;17.50;99.90;;;;;;5071899;28;19923;-80
2023/06/05 06:22:14;;;;;;;;;;;17.70;99.90;;;;;;5098962;28;19931;-80
2023/06/05 06:24:41;;;;;;;;;;;17.80;99.90;;;;;;5087501;28;20286;-79
2023/06/05 06:27:08;;;;;;;;;;;18.00;99.90;;;;;;5069121;28;19924;-79
2023/06/05 06:29:33;;;;;;;;;;;18.00;99.90;;;;;;5082834;28;20509;-80
2023/06/05 06:31:59;;;;;;;;;;;18.20;99.90;;;;;;5086456;28;20025;-79
2023/06/05 06:34:25;;;;;;;;;;;18.20;99.90;;;;;;5075443;28;19927;-78
2023/06/05 06:36:50;;;;;;;;;;;18.30;99.90;;;;;;5072026;28;19935;-79
2023/06/05 06:39:18;;;;;;;;;;;18.40;99.90;;;;;;5095014;28;19974;-79
2023/06/05 06:41:44;;;;;;;;;;;18.60;99.90;;;;;;5089364;28;19928;-79
2023/06/05 06:44:10;;;;;;;;;;;18.70;99.90;;;;;;5058694;28;20508;-79
2023/06/05 06:46:36;;;;;;;;;;;18.80;99.90;;;;;;5061849;28;19932;-79
2023/06/05 06:49:02;;;;;;;;;;;18.80;99.90;;;;;;5042251;28;19932;-81
2023/06/05 06:51:27;;;;;;;;;;;18.90;99.90;;;;;;5045844;28;19925;-80
2023/06/05 06:53:53;;;;;;;;;;;19.00;99.90;;;;;;5093829;28;19947;-79
2023/06/05 06:56:19;;;;;;;;;;;19.20;99.90;;;;;;5061363;28;19928;-79
2023/06/05 06:58:48;;;;;;;;;;;19.30;99.90;;;;;;5043201;28;19924;-79
2023/06/05 07:01:14;;;;;;;;;;;19.50;99.90;;;;;;5058725;28;20447;-79
2023/06/05 07:03:40;;;;;;;;;;;19.60;99.90;;;;;;5089339;28;19927;-80
2023/06/05 07:06:06;;;;;;;;;;;19.70;99.90;;;;;;5064043;28;19954;-80
2023/06/05 07:08:32;;;;;;;;;;;19.90;98.20;;;;;;5077675;28;19928;-80
2023/06/05 07:10:58;;;;;;;;;;;19.90;99.90;;;;;;5061542;28;20017;-80
2023/06/05 07:13:23;;;;;;;;;;;19.90;96.90;;;;;;5061354;28;19924;-81
2023/06/05 07:15:50;;;;;;;;;;;19.90;97.60;;;;;;5101474;28;19967;-81
2023/06/05 07:18:17;;;;;;;;;;;20.10;98.60;;;;;;5079860;28;19946;-81
2023/06/05 07:20:43;;;;;;;;;;;20.10;95.30;;;;;;5066692;28;19956;-80
2023/06/05 07:23:08;;;;;;;;;;;20.20;96.50;;;;;;5068023;28;19928;-81
2023/06/05 07:25:34;;;;;;;;;;;20.40;97.50;;;;;;5115841;27;19994;-81
2023/06/05 07:28:00;;;;;;;;;;;20.50;96.30;;;;;;5083723;28;19967;-81
2023/06/05 07:30:26;;;;;;;;;;;20.60;96.20;;;;;;5105182;28;20566;-81
2023/06/05 07:32:52;;;;;;;;;;;20.80;96.20;;;;;;5072440;28;20671;-80
2023/06/05 07:35:18;;;;;;;;;;;20.70;96.00;;;;;;5070620;28;19931;-79
2023/06/05 07:37:43;;;;;;;;;;;20.80;95.40;;;;;;5092588;28;19964;-81
2023/06/05 07:40:09;;;;;;;;;;;20.70;95.00;;;;;;5056569;28;19924;-81
2023/06/05 07:42:35;;;;;;;;;;;20.70;94.10;;;;;;5092480;28;19981;-81
2023/06/05 07:45:00;;;;;;;;;;;20.80;95.00;;;;;;5045226;28;19993;-81
2023/06/05 07:47:26;;;;;;;;;;;20.90;95.60;;;;;;5092600;28;19928;-81
2023/06/05 07:49:59;;;;;;;;;;;21.00;94.10;;;;;;5050410;28;19927;-81
2023/06/05 07:52:25;;;;;;;;;;;21.20;94.80;;;;;;5078050;28;19924;-80
2023/06/05 07:54:50;;;;;;;;;;;21.30;93.80;;;;;;5080051;28;19939;-81
2023/06/05 07:57:17;;;;;;;;;;;21.30;91.00;;;;;;5073367;28;19924;-80
2023/06/05 07:59:43;;;;;;;;;;;21.40;93.30;;;;;;5062036;28;19928;-81
2023/06/05 08:02:08;;;;;;;;;;;21.30;90.10;;;;;;5043512;28;19993;-81
2023/06/05 08:04:35;;;;;;;;;;;21.20;91.80;;;;;;5093832;28;19924;-82
2023/06/05 08:07:00;;;;;;;;;;;21.20;89.00;;;;;;5054333;28;19941;-81
2023/06/05 08:09:26;;;;;;;;;;;21.30;92.80;;;;;;5042527;28;20022;-82
2023/06/05 08:11:52;;;;;;;;;;;21.50;93.10;;;;;;5045333;28;19935;-82
2023/06/05 08:14:17;;;;;;;;;;;21.60;91.90;;;;;;5063438;28;19924;-84
2023/06/05 08:16:43;;;;;;;;;;;21.50;91.80;;;;;;5062379;28;19988;-84
2023/06/05 08:19:09;;;;;;;;;;;21.50;90.20;;;;;;5059139;28;19924;-79
2023/06/05 08:21:36;;;;;;;;;;;21.60;88.90;;;;;;5098456;28;19946;-82
2023/06/05 08:24:02;;;;;;;;;;;21.60;89.20;;;;;;5085028;28;19924;-83
2023/06/05 08:26:28;;;;;;;;;;;21.50;88.90;;;;;;5061853;28;20274;-80
2023/06/05 08:28:53;;;;;;;;;;;21.60;85.00;;;;;;5120784;27;19924;-80
2023/06/05 08:31:20;;;;;;;;;;;21.50;87.40;;;;;;5083834;28;19924;-83
2023/06/05 08:33:46;;;;;;;;;;;21.60;85.20;;;;;;5076246;28;19932;-80
2023/06/05 08:36:11;;;;;;;;;;;21.50;92.20;;;;;;5061944;28;20389;-83
2023/06/05 08:38:37;;;;;;;;;;;21.50;88.00;;;;;;5042287;28;19987;-80
2023/06/05 08:41:05;;;;;;;;;;;21.50;90.60;;;;;;5052527;28;19970;-81
2023/06/05 08:43:31;;;;;;;;;;;21.60;90.80;;;;;;5049403;28;19924;-80
2023/06/05 08:45:57;;;;;;;;;;;21.50;90.80;;;;;;5086815;28;19924;-77
2023/06/05 08:48:24;;;;;;;;;;;21.60;89.50;;;;;;5066088;28;19977;-77
2023/06/05 08:50:50;;;;;;;;;;;21.60;87.20;;;;;;5055647;28;19924;-76
2023/06/05 08:53:16;;;;;;;;;;;21.60;85.90;;;;;;5070169;28;19958;-75
2023/06/05 08:55:43;;;;;;;;;;;21.60;90.20;;;;;;5084846;28;20260;-78
2023/06/05 08:58:09;;;;;;;;;;;21.50;86.10;;;;;;5059592;28;19955;-77
2023/06/05 09:00:35;;;;;;;;;;;21.60;91.30;;;;;;5100174;28;20722;-78
2023/06/05 09:03:01;;;;;;;;;;;21.70;87.30;;;;;;5071749;28;19953;-77
2023/06/05 09:05:27;;;;;;;;;;;21.90;87.30;;;;;;5068127;28;19935;-77
2023/06/05 09:07:52;;;;;;;;;;;22.00;89.30;;;;;;5078461;28;20019;-76
2023/06/05 09:10:22;;;;;;;;;;;22.10;87.20;;;;;;5095668;28;19924;-77
2023/06/05 09:12:58;;;;;;;;;;;22.10;89.10;;;;;;5053344;28;19924;-79
2023/06/05 09:15:27;;;;;;;;;;;22.20;82.00;;;;;;5075518;28;19924;-83
2023/06/05 09:18:12;;;;;;;;;;;22.10;88.40;;;;;;5081731;28;19935;-87
2023/06/05 09:20:39;;;;;;;;;;;22.10;84.10;;;;;;5074377;28;20264;-86
2023/06/05 09:23:20;;;;;;;;;;;21.90;84.80;;;;;;5059149;28;19938;-80
2023/06/05 09:25:48;;;;;;;;;;;21.50;83.50;;;;;;5081806;28;19932;-86
2023/06/05 09:28:14;;;;;;;;;;;21.40;89.90;;;;;;5069709;28;19932;-85
2023/06/05 09:31:06;;;;;;;;;;;21.60;89.40;;;;;;5063728;28;19967;-79
2023/06/05 09:33:33;;;;;;;;;;;21.80;89.30;;;;;;5059253;28;19932;-76
2023/06/05 09:36:06;;;;;;;;;;;22.00;84.90;;;;;;5109718;28;19933;-77
2023/06/05 09:38:32;;;;;;;;;;;22.10;85.40;;;;;;5063769;28;20459;-78
2023/06/05 09:41:07;;;;;;;;;;;22.40;86.90;;;;;;5056834;28;20283;-77
2023/06/05 09:43:34;;;;;;;;;;;22.50;84.80;;;;;;5061516;28;19924;-78
2023/06/05 09:46:05;;;;;;;;;;;22.60;85.50;;;;;;5061641;28;19936;-78
2023/06/05 09:48:32;;;;;;;;;;;22.80;88.00;;;;;;5059929;28;20369;-78
2023/06/05 09:51:08;;;;;;;;;;;23.00;83.90;;;;;;5065351;28;19924;-77
2023/06/05 09:53:33;;;;;;;;;;;23.10;81.00;;;;;;5062921;28;19975;-78
2023/06/05 09:56:00;;;;;;;;;;;23.10;78.00;;;;;;5093403;28;19939;-79
2023/06/05 09:58:25;;;;;;;;;;;23.10;77.20;;;;;;5074348;28;19932;-78
2023/06/05 10:00:51;;;;;;;;;;;23.00;76.20;;;;;;5092244;28;19931;-80
2023/06/05 10:03:17;;;;;;;;;;;23.10;83.00;;;;;;5073468;28;20421;-79
2023/06/05 10:05:44;;;;;;;;;;;23.00;80.10;;;;;;5055445;28;19925;-77
2023/06/05 10:08:14;;;;;;;;;;;23.00;77.00;;;;;;5061620;28;20019;-78
2023/06/05 10:10:39;;;;;;;;;;;23.00;80.00;;;;;;5061135;28;19929;-78
2023/06/05 10:13:05;;;;;;;;;;;23.20;79.20;;;;;;5098299;28;19939;-78
2023/06/05 10:15:32;;;;;;;;;;;23.30;80.40;;;;;;5089804;28;19925;-79
2023/06/05 10:17:58;;;;;;;;;;;23.40;79.20;;;;;;5065430;28;20047;-77
2023/06/05 10:20:24;;;;;;;;;;;23.20;78.00;;;;;;5094053;28;19987;-81
2023/06/05 10:22:50;;;;;;;;;;;23.20;73.60;;;;;;5073759;28;19924;-81
2023/06/05 10:25:18;;;;;;;;;;;23.10;74.60;;;;;;5073092;28;19932;-80
2023/06/05 10:27:56;;;;;;;;;;;23.10;75.80;;;;;;5077941;28;19930;-79
2023/06/05 10:30:37;;;;;;;;;;;23.10;77.10;;;;;;5079067;28;19924;-77
2023/06/05 10:33:29;;;;;;;;;;;23.30;75.70;;;;;;5119140;27;20336;-77
2023/06/05 10:36:16;;;;;;;;;;;23.40;75.80;;;;;;5078730;28;19932;-73
2023/06/05 10:38:41;;;;;;;;;;;23.40;73.20;;;;;;5112626;27;19931;-77
2023/06/05 10:41:07;;;;;;;;;;;23.50;77.30;;;;;;5075055;28;19932;-77
2023/06/05 10:43:45;;;;;;;;;;;23.40;72.70;;;;;;5096752;28;19931;-79
2023/06/05 10:46:40;;;;;;;;;;;23.40;72.00;;;;;;5112614;28;20006;-74
2023/06/05 10:49:07;;;;;;;;;;;23.40;73.60;;;;;;5055190;22;19925;-74
2023/06/05 10:51:39;;;;;;;;;;;23.40;76.20;;;;;;5036023;28;19926;-75
2023/06/05 10:54:08;;;;;;;;;;;23.50;74.70;;;;;;5038221;28;19925;-79
2023/06/05 10:56:53;;;;;;;;;;;23.60;76.30;;;;;;5022073;28;20861;-80
2023/06/05 10:59:23;;;;;;;;;;;23.80;75.20;;;;;;5040432;28;19925;-76
2023/06/05 11:02:08;;;;;;;;;;;23.80;73.50;;;;;;5042788;28;19925;-77
2023/06/05 11:04:46;;;;;;;;;;;23.90;74.50;;;;;;5021749;28;19925;-75
2023/06/05 11:07:22;;;;;;;;;;;23.90;69.70;;;;;;5042377;28;19936;-75
2023/06/05 11:10:07;;;;;;;;;;;24.00;72.30;;;;;;5040533;28;19929;-75
2023/06/05 11:12:42;;;;;;;;;;;23.90;72.40;;;;;;5041893;28;19979;-75
2023/06/05 11:15:09;;;;;;;;;;;23.90;74.30;;;;;;5040599;28;19926;-74
2023/06/05 11:17:35;;;;;;;;;;;24.00;73.80;;;;;;5038917;28;19925;-75
2023/06/05 11:20:05;;;;;;;;;;;24.10;70.60;;;;;;5018325;28;19936;-77
2023/06/05 11:22:31;;;;;;;;;;;24.00;70.00;;;;;;5021036;28;19955;-73
2023/06/05 11:25:16;;;;;;;;;;;24.10;72.70;;;;;;5040001;28;19925;-74
2023/06/05 11:27:41;;;;;;;;;;;24.10;70.40;;;;;;5025573;28;19925;-77
2023/06/05 11:30:11;;;;;;;;;;;24.20;70.80;;;;;;5023590;28;19925;-74
2023/06/05 11:32:37;;;;;;;;;;;24.20;72.20;;;;;;5043311;28;19971;-76
2023/06/05 11:35:03;;;;;;;;;;;24.30;71.20;;;;;;5038625;28;19933;-73
2023/06/05 11:37:29;;;;;;;;;;;24.30;70.60;;;;;;5040138;28;19936;-74
2023/06/05 11:39:54;;;;;;;;;;;24.20;68.20;;;;;;5039360;28;19929;-74
2023/06/05 11:42:21;;;;;;;;;;;24.10;69.80;;;;;;5023827;28;20019;-73
2023/06/05 11:44:46;;;;;;;;;;;24.10;67.30;;;;;;5037298;28;19929;-73
2023/06/05 11:47:22;;;;;;;;;;;24.20;68.00;;;;;;5021421;28;20035;-74
2023/06/05 11:49:47;;;;;;;;;;;24.20;67.70;;;;;;5045673;28;19928;-74
2023/06/05 11:52:18;;;;;;;;;;;24.20;68.10;;;;;;5040408;28;20020;-73
2023/06/05 11:54:52;;;;;;;;;;;24.20;69.20;;;;;;5025105;28;19984;-74
2023/06/05 11:57:18;;;;;;;;;;;24.20;69.30;;;;;;5019284;28;19936;-85
2023/06/05 11:59:47;;;;;;;;;;;24.20;67.50;;;;;;5002822;28;19921;-84
2023/06/05 12:02:13;;;;;;;;;;;24.20;69.40;;;;;;5014926;28;19925;-84
2023/06/05 12:04:40;;;;;;;;;;;24.30;70.70;;;;;;5017858;28;19943;-82
2023/06/05 12:07:06;;;;;;;;;;;24.50;70.30;;;;;;5019661;28;19939;-80
2023/06/05 12:09:31;;;;;;;;;;;24.60;69.10;;;;;;5001548;28;19961;-79
2023/06/05 12:12:07;;;;;;;;;;;24.50;67.00;;;;;;5036039;28;20365;-81
2023/06/05 12:14:33;;;;;;;;;;;24.50;65.80;;;;;;5033064;28;19929;-84
2023/06/05 12:16:59;;;;;;;;;;;24.50;66.90;;;;;;5017845;28;19951;-87
2023/06/05 12:19:25;;;;;;;;;;;24.50;65.90;;;;;;5041156;28;19981;-84
2023/06/05 12:22:00;;;;;;;;;;;24.60;65.60;;;;;;5038643;28;20404;-88
2023/06/05 12:24:26;;;;;;;;;;;24.70;66.80;;;;;;5042453;28;19948;-77
2023/06/05 12:26:59;;;;;;;;;;;24.70;65.70;;;;;;5038435;28;19925;-80
2023/06/05 12:29:26;;;;;;;;;;;24.60;65.00;;;;;;5024406;28;19925;-79
2023/06/05 12:31:52;;;;;;;;;;;24.50;67.80;;;;;;5039427;28;19934;-79
2023/06/05 12:34:18;;;;;;;;;;;24.50;66.50;;;;;;5023356;28;20392;-78
2023/06/05 12:36:44;;;;;;;;;;;24.60;67.40;;;;;;5041118;28;19968;-79
2023/06/05 12:39:10;;;;;;;;;;;24.60;66.60;;;;;;5038041;28;19930;-78
2023/06/05 12:41:36;;;;;;;;;;;24.70;65.90;;;;;;5040696;28;19957;-76
2023/06/05 12:44:04;;;;;;;;;;;24.60;62.70;;;;;;5021890;28;19936;-77
2023/06/05 12:46:30;;;;;;;;;;;24.40;64.90;;;;;;5024179;28;19929;-76
2023/06/05 12:48:57;;;;;;;;;;;24.30;65.60;;;;;;5039516;28;19972;-84
2023/06/05 12:51:24;;;;;;;;;;;24.10;65.90;;;;;;5021252;28;19952;-83
2023/06/05 12:53:50;;;;;;;;;;;24.10;65.40;;;;;;5020891;28;19984;-80
2023/06/05 12:56:16;;;;;;;;;;;24.20;66.50;;;;;;5005724;28;19965;-80
2023/06/05 12:58:41;;;;;;;;;;;24.40;65.40;;;;;;5019283;28;20366;-80
2023/06/05 13:01:07;;;;;;;;;;;24.50;67.00;;;;;;5038535;28;19925;-79
2023/06/05 13:03:33;;;;;;;;;;;24.60;67.10;;;;;;5023294;28;19925;-81
2023/06/05 13:05:58;;;;;;;;;;;24.50;65.20;;;;;;5005361;28;20011;-82
2023/06/05 13:08:25;;;;;;;;;;;24.30;64.70;;;;;;5022265;28;19928;-83
2023/06/05 13:10:51;;;;;;;;;;;24.30;62.70;;;;;;5024325;28;19972;-78
2023/06/05 13:13:16;;;;;;;;;;;24.20;66.10;;;;;;5005977;28;20328;-79
2023/06/05 13:15:42;;;;;;;;;;;24.20;65.50;;;;;;5023318;28;19933;-79
2023/06/05 13:18:09;;;;;;;;;;;24.50;67.30;;;;;;5005919;28;19925;-79
2023/06/05 13:20:35;;;;;;;;;;;24.60;65.90;;;;;;5022814;28;19925;-80
2023/06/05 13:23:00;;;;;;;;;;;24.80;64.70;;;;;;5022468;28;19936;-78
2023/06/05 13:25:26;;;;;;;;;;;25.00;66.10;;;;;;5020947;28;20466;-78
2023/06/05 13:27:52;;;;;;;;;;;25.00;63.20;;;;;;5022149;28;20293;-79
2023/06/05 13:30:17;;;;;;;;;;;25.00;63.90;;;;;;5004144;28;19985;-79
2023/06/05 13:32:44;;;;;;;;;;;25.00;63.70;;;;;;5038289;28;19975;-79
2023/06/05 13:35:10;;;;;;;;;;;25.00;64.80;;;;;;5020608;28;19988;-79
2023/06/05 13:37:36;;;;;;;;;;;25.00;64.80;;;;;;5022015;28;20312;-78
2023/06/05 13:40:05;;;;;;;;;;;25.10;62.50;;;;;;5037716;28;19995;-79
2023/06/05 13:42:32;;;;;;;;;;;25.10;63.00;;;;;;5021935;28;20407;-78
2023/06/05 13:44:58;;;;;;;;;;;25.10;63.30;;;;;;5022228;28;19933;-77
2023/06/05 13:47:23;;;;;;;;;;;25.10;63.00;;;;;;5003846;28;19921;-77
2023/06/05 13:49:49;;;;;;;;;;;25.00;63.50;;;;;;5021475;28;20015;-79
2023/06/05 13:52:14;;;;;;;;;;;25.10;65.20;;;;;;5019475;28;19925;-77
2023/06/05 13:54:41;;;;;;;;;;;25.10;63.40;;;;;;5040143;28;19929;-78
2023/06/05 13:57:07;;;;;;;;;;;25.00;61.90;;;;;;5038298;28;19925;-77
2023/06/05 13:59:32;;;;;;;;;;;24.90;64.30;;;;;;5039750;28;20055;-78
2023/06/05 14:01:58;;;;;;;;;;;24.90;61.90;;;;;;5021427;28;19932;-77
2023/06/05 14:04:24;;;;;;;;;;;24.90;62.50;;;;;;5017657;28;19984;-78
2023/06/05 14:06:50;;;;;;;;;;;24.80;63.70;;;;;;5023414;28;19929;-79
2023/06/05 14:09:15;;;;;;;;;;;24.90;64.10;;;;;;5024602;28;19968;-79
2023/06/05 14:11:44;;;;;;;;;;;24.70;64.60;;;;;;5026630;28;19970;-79
2023/06/05 14:14:10;;;;;;;;;;;24.70;65.20;;;;;;5034410;28;19925;-78
2023/06/05 14:16:36;;;;;;;;;;;24.80;64.00;;;;;;5025859;28;19936;-77
2023/06/05 14:19:01;;;;;;;;;;;24.80;65.00;;;;;;5041509;28;19929;-81
2023/06/05 14:21:27;;;;;;;;;;;24.60;63.80;;;;;;5006992;28;19972;-83